Saint Charles — WDF2626 — position and weather

sailwx.info

Track history (hours):
 
Tides and Currents Weather Stations Pressure Air Temp Water Temp Dewpoint Dewpoint Depression Visibility Wind Speed Wind Dir Waves Ship Positions

Saint Charles

Owner: Higman Barge Lines, Inc, Orange, TX. More information available from US FCC via Universal Licensing System and Coast Guard Vessel Documentation Center.

Last reported at 2017-Sep-10 13:19 UTC. Time now 2017-Sep-24 04:59 UTC.
Position N 29°33' W 090°26'.
Warning: this ship's position is 13 days out of date.

Length 26 m; draft 3.3 m.

Type: Towing. MMSI: 367430030.

Date/timePositionNaut miles runAvg speedWind from/ knotsBaromVisibWave heightAir tempDewpointWater temp
2017-Sep-10 13:19N 29°33' W 090°26'1 2.0
2017-Sep-10 12:57N 29°33' W 090°27'2 4.2
2017-Sep-10 12:30N 29°34' W 090°29'2 4.4
2017-Sep-10 12:00N 29°34' W 090°32'2 4.4
2017-Sep-10 11:31N 29°34' W 090°34'2 4.0
2017-Sep-10 11:01N 29°35' W 090°37'3 5.1
2017-Sep-10 10:31N 29°36' W 090°39'2 4.4
2017-Sep-10 10:01N 29°37' W 090°42'1 2.9
2017-Sep-10 09:31N 29°36' W 090°43'2 3.7
2017-Sep-10 09:01N 29°34' W 090°44'2 3.1
2017-Sep-10 08:31N 29°33' W 090°45'2 4.0
2017-Sep-10 08:01N 29°32' W 090°47'2 5.0
2017-Sep-10 07:31N 29°32' W 090°50'3 5.0
2017-Sep-10 07:00N 29°32' W 090°53'3 5.3
2017-Sep-10 06:30N 29°34' W 090°56'2 4.8
2017-Sep-10 05:59N 29°35' W 090°58'56 4.1
2017-Sep-09 16:19N 29°50' W 092°00'1 4.6
2017-Sep-09 16:00N 29°49' W 092°02'2 3.9
2017-Sep-09 15:31N 29°48' W 092°04'2 4.1
2017-Sep-09 15:01N 29°48' W 092°06'3 4.9
2017-Sep-09 14:29N 29°47' W 092°09'2 4.5
2017-Sep-09 13:58N 29°47' W 092°12'3 5.4
2017-Sep-09 13:29N 29°48' W 092°14'3 5.3
2017-Sep-09 13:01N 29°49' W 092°17'3 4.9
2017-Sep-09 12:29N 29°50' W 092°19'21 4.7
2017-Sep-09 07:59N 29°57' W 092°43'2 4.5
2017-Sep-09 07:28N 29°58' W 092°45'2 4.7
2017-Sep-09 07:01N 29°58' W 092°48'10 4.8
2017-Sep-09 05:02N 29°56' W 092°58'2 4.6
2017-Sep-09 04:34N 29°56' W 093°01'2 4.4
2017-Sep-09 04:09N 29°56' W 093°03'1 4.3
2017-Sep-09 03:50N 29°56' W 093°04'3 4.4
2017-Sep-09 03:10N 29°56' W 093°08'4 4.4
2017-Sep-09 02:20N 29°58' W 093°11'2 4.9
2017-Sep-09 02:01N 29°59' W 093°13'3 4.0
2017-Sep-09 01:21N 30°01' W 093°14'2 4.9
2017-Sep-09 01:01N 30°02' W 093°16'2 4.1
2017-Sep-09 00:31N 30°04' W 093°16'2 3.6
2017-Sep-09 00:01N 30°06' W 093°18'1 2.2
2017-Sep-08 23:31N 30°06' W 093°19'2 3.6
2017-Sep-08 23:01N 30°07' W 093°20'3 5.5
2017-Sep-08 22:31N 30°10' W 093°19'1 1.9
2017-Sep-08 22:01N 30°11' W 093°19'0 0.4
2017-Sep-08 21:30N 30°11' W 093°19'0 0.0
2017-Sep-08 21:01N 30°11' W 093°19'0 0.0
2017-Sep-08 20:31N 30°11' W 093°19'0 0.0
2017-Sep-08 20:01N 30°11' W 093°19'0 0.0
2017-Sep-08 19:31N 30°11' W 093°19'0 0.0
2017-Sep-08 19:01N 30°11' W 093°19'0 0.0
2017-Sep-08 18:31N 30°11' W 093°19'0 0.0
2017-Sep-08 18:01N 30°11' W 093°19'0 0.0
2017-Sep-08 17:31N 30°11' W 093°19'0 0.0
2017-Sep-08 17:01N 30°11' W 093°19'0 0.0
2017-Sep-08 16:31N 30°11' W 093°19'0 0.0
2017-Sep-08 16:01N 30°11' W 093°19'0 0.0
2017-Sep-08 15:31N 30°11' W 093°19'0 0.0
2017-Sep-08 15:00N 30°11' W 093°19'0 0.0
2017-Sep-08 14:30N 30°11' W 093°19'0 0.0
2017-Sep-08 14:01N 30°11' W 093°19'0 0.0
2017-Sep-08 13:31N 30°11' W 093°19'0 0.0
2017-Sep-08 13:01N 30°11' W 093°19'0 0.0
2017-Sep-08 12:31N 30°11' W 093°19'0 0.0
2017-Sep-08 12:01N 30°11' W 093°19'0 0.0
2017-Sep-08 11:31N 30°11' W 093°19'0 0.0
2017-Sep-08 11:01N 30°11' W 093°19'0 0.0
2017-Sep-08 09:58N 30°11' W 093°19'0 0.0
2017-Sep-08 08:18N 30°11' W 093°19'0 0.0
2017-Sep-08 07:55N 30°11' W 093°19'0 0.0
2017-Sep-08 07:31N 30°11' W 093°19'0 0.0
2017-Sep-08 06:44N 30°11' W 093°19'0 0.0
2017-Sep-08 06:16N 30°11' W 093°19'0 0.0
2017-Sep-08 04:57N 30°11' W 093°19'0 0.0
2017-Sep-08 03:53N 30°11' W 093°19'0 0.1
2017-Sep-08 03:06N 30°11' W 093°19'0 0.4
2017-Sep-08 02:38N 30°11' W 093°19'1 2.5
2017-Sep-08 02:17N 30°10' W 093°19'2 7.3
2017-Sep-08 02:01N 30°08' W 093°20'4 7.0
2017-Sep-08 01:31N 30°05' W 093°20'2 4.4
2017-Sep-08 01:01N 30°04' W 093°23'3 5.3
2017-Sep-08 00:31N 30°04' W 093°26'2 3.2
2017-Sep-08 00:01N 30°04' W 093°28'0 0.1
2017-Sep-07 23:30N 30°04' W 093°28'0 0.0
2017-Sep-07 23:01N 30°04' W 093°28'0 0.0
2017-Sep-07 22:31N 30°04' W 093°28'0 0.0
2017-Sep-07 22:01N 30°04' W 093°28'0 0.0
2017-Sep-07 21:31N 30°04' W 093°28'0 0.0
2017-Sep-07 21:00N 30°04' W 093°28'0 0.0
2017-Sep-07 20:31N 30°04' W 093°28'0 0.0
2017-Sep-07 20:00N 30°04' W 093°28'0 0.0
2017-Sep-07 19:30N 30°04' W 093°28'0 0.0
2017-Sep-07 19:01N 30°04' W 093°28'0 0.0
2017-Sep-07 18:31N 30°04' W 093°28'0 0.1
2017-Sep-07 18:01N 30°04' W 093°28'3 6.6
2017-Sep-07 17:31N 30°04' W 093°31'78 1.6
2017-Sep-05 17:00N 29°30' W 094°52'4 8.7
2017-Sep-05 16:31N 29°33' W 094°55'4 8.5
2017-Sep-05 16:01N 29°37' W 094°57'4 8.7
2017-Sep-05 15:30N 29°41' W 094°59'4 7.5
2017-Sep-05 14:56N 29°44' W 095°03'3 0.6
2017-Sep-05 09:48N 29°45' W 095°06'1 0.0
2017-Sep-03 20:31N 29°45' W 095°06'0 2.7
2017-Sep-03 20:29N 29°45' W 095°06'  
2017-Sep-01 06:07N 29°44' W 095°08'  
Track history (hours):
 
Tides and Currents Weather Stations Pressure Air Temp Water Temp Dewpoint Dewpoint Depression Visibility Wind Speed Wind Dir Waves Ship Positions

Saint Charles

Owner: Higman Barge Lines, Inc, Orange, TX. More information available from US FCC via Universal Licensing System and Coast Guard Vessel Documentation Center.

Last reported at 2017-Sep-10 13:19 UTC. Time now 2017-Sep-24 04:59 UTC.
Position N 29°33' W 090°26'.
Warning: this ship's position is 13 days out of date.

Length 26 m; draft 3.3 m.

Type: Towing. MMSI: 367430030.

Date/timePositionNaut miles runAvg speedWind from/ knotsBaromVisibWave heightAir tempDewpointWater temp
2017-Sep-10 13:19N 29°33' W 090°26'1 2.0
2017-Sep-10 12:57N 29°33' W 090°27'2 4.2
2017-Sep-10 12:30N 29°34' W 090°29'2 4.4
2017-Sep-10 12:00N 29°34' W 090°32'2 4.4
2017-Sep-10 11:31N 29°34' W 090°34'2 4.0
2017-Sep-10 11:01N 29°35' W 090°37'3 5.1
2017-Sep-10 10:31N 29°36' W 090°39'2 4.4
2017-Sep-10 10:01N 29°37' W 090°42'1 2.9
2017-Sep-10 09:31N 29°36' W 090°43'2 3.7
2017-Sep-10 09:01N 29°34' W 090°44'2 3.1
2017-Sep-10 08:31N 29°33' W 090°45'2 4.0
2017-Sep-10 08:01N 29°32' W 090°47'2 5.0
2017-Sep-10 07:31N 29°32' W 090°50'3 5.0
2017-Sep-10 07:00N 29°32' W 090°53'3 5.3
2017-Sep-10 06:30N 29°34' W 090°56'2 4.8
2017-Sep-10 05:59N 29°35' W 090°58'56 4.1
2017-Sep-09 16:19N 29°50' W 092°00'1 4.6
2017-Sep-09 16:00N 29°49' W 092°02'2 3.9
2017-Sep-09 15:31N 29°48' W 092°04'2 4.1
2017-Sep-09 15:01N 29°48' W 092°06'3 4.9
2017-Sep-09 14:29N 29°47' W 092°09'2 4.5
2017-Sep-09 13:58N 29°47' W 092°12'3 5.4
2017-Sep-09 13:29N 29°48' W 092°14'3 5.3
2017-Sep-09 13:01N 29°49' W 092°17'3 4.9
2017-Sep-09 12:29N 29°50' W 092°19'21 4.7
2017-Sep-09 07:59N 29°57' W 092°43'2 4.5
2017-Sep-09 07:28N 29°58' W 092°45'2 4.7
2017-Sep-09 07:01N 29°58' W 092°48'10 4.8
2017-Sep-09 05:02N 29°56' W 092°58'2 4.6
2017-Sep-09 04:34N 29°56' W 093°01'2 4.4
2017-Sep-09 04:09N 29°56' W 093°03'1 4.3
2017-Sep-09 03:50N 29°56' W 093°04'3 4.4
2017-Sep-09 03:10N 29°56' W 093°08'4 4.4
2017-Sep-09 02:20N 29°58' W 093°11'2 4.9
2017-Sep-09 02:01N 29°59' W 093°13'3 4.0
2017-Sep-09 01:21N 30°01' W 093°14'2 4.9
2017-Sep-09 01:01N 30°02' W 093°16'2 4.1
2017-Sep-09 00:31N 30°04' W 093°16'2 3.6
2017-Sep-09 00:01N 30°06' W 093°18'1 2.2
2017-Sep-08 23:31N 30°06' W 093°19'2 3.6
2017-Sep-08 23:01N 30°07' W 093°20'3 5.5
2017-Sep-08 22:31N 30°10' W 093°19'1 1.9
2017-Sep-08 22:01N 30°11' W 093°19'0 0.4
2017-Sep-08 21:30N 30°11' W 093°19'0 0.0
2017-Sep-08 21:01N 30°11' W 093°19'0 0.0
2017-Sep-08 20:31N 30°11' W 093°19'0 0.0
2017-Sep-08 20:01N 30°11' W 093°19'0 0.0
2017-Sep-08 19:31N 30°11' W 093°19'0 0.0
2017-Sep-08 19:01N 30°11' W 093°19'0 0.0
2017-Sep-08 18:31N 30°11' W 093°19'0 0.0
2017-Sep-08 18:01N 30°11' W 093°19'0 0.0
2017-Sep-08 17:31N 30°11' W 093°19'0 0.0
2017-Sep-08 17:01N 30°11' W 093°19'0 0.0
2017-Sep-08 16:31N 30°11' W 093°19'0 0.0
2017-Sep-08 16:01N 30°11' W 093°19'0 0.0
2017-Sep-08 15:31N 30°11' W 093°19'0 0.0
2017-Sep-08 15:00N 30°11' W 093°19'0 0.0
2017-Sep-08 14:30N 30°11' W 093°19'0 0.0
2017-Sep-08 14:01N 30°11' W 093°19'0 0.0
2017-Sep-08 13:31N 30°11' W 093°19'0 0.0
2017-Sep-08 13:01N 30°11' W 093°19'0 0.0
2017-Sep-08 12:31N 30°11' W 093°19'0 0.0
2017-Sep-08 12:01N 30°11' W 093°19'0 0.0
2017-Sep-08 11:31N 30°11' W 093°19'0 0.0
2017-Sep-08 11:01N 30°11' W 093°19'0 0.0
2017-Sep-08 09:58N 30°11' W 093°19'0 0.0
2017-Sep-08 08:18N 30°11' W 093°19'0 0.0
2017-Sep-08 07:55N 30°11' W 093°19'0 0.0
2017-Sep-08 07:31N 30°11' W 093°19'0 0.0
2017-Sep-08 06:44N 30°11' W 093°19'0 0.0
2017-Sep-08 06:16N 30°11' W 093°19'0 0.0
2017-Sep-08 04:57N 30°11' W 093°19'0 0.0
2017-Sep-08 03:53N 30°11' W 093°19'0 0.1
2017-Sep-08 03:06N 30°11' W 093°19'0 0.4
2017-Sep-08 02:38N 30°11' W 093°19'1 2.5
2017-Sep-08 02:17N 30°10' W 093°19'2 7.3
2017-Sep-08 02:01N 30°08' W 093°20'4 7.0
2017-Sep-08 01:31N 30°05' W 093°20'2 4.4
2017-Sep-08 01:01N 30°04' W 093°23'3 5.3
2017-Sep-08 00:31N 30°04' W 093°26'2 3.2
2017-Sep-08 00:01N 30°04' W 093°28'0 0.1
2017-Sep-07 23:30N 30°04' W 093°28'0 0.0
2017-Sep-07 23:01N 30°04' W 093°28'0 0.0
2017-Sep-07 22:31N 30°04' W 093°28'0 0.0
2017-Sep-07 22:01N 30°04' W 093°28'0 0.0
2017-Sep-07 21:31N 30°04' W 093°28'0 0.0
2017-Sep-07 21:00N 30°04' W 093°28'0 0.0
2017-Sep-07 20:31N 30°04' W 093°28'0 0.0
2017-Sep-07 20:00N 30°04' W 093°28'0 0.0
2017-Sep-07 19:30N 30°04' W 093°28'0 0.0
2017-Sep-07 19:01N 30°04' W 093°28'0 0.0
2017-Sep-07 18:31N 30°04' W 093°28'0 0.1
2017-Sep-07 18:01N 30°04' W 093°28'3 6.6
2017-Sep-07 17:31N 30°04' W 093°31'78 1.6
2017-Sep-05 17:00N 29°30' W 094°52'4 8.7
2017-Sep-05 16:31N 29°33' W 094°55'4 8.5
2017-Sep-05 16:01N 29°37' W 094°57'4 8.7
2017-Sep-05 15:30N 29°41' W 094°59'4 7.5
2017-Sep-05 14:56N 29°44' W 095°03'3 0.6
2017-Sep-05 09:48N 29°45' W 095°06'1 0.0
2017-Sep-03 20:31N 29°45' W 095°06'0 2.7
2017-Sep-03 20:29N 29°45' W 095°06'  
2017-Sep-01 06:07N 29°44' W 095°08'  

Dump ship's entire track history